Washington, DC (20590)

10:52 PM EDT on March 28, 2017 (GMT -0400)
The Washington Post | | Change Station

Elev 151 ft 38.90 °N, 77.03 °W | Updated 2 seconds ago

Overcast
Overcast
64.2 °F
Feels Like 64.2 °F
N
2.0
Wind Variable Wind from North
Gusts 9.0 mph

Today
High -- | Low -- °F
--% Chance of Precip.
Yesterday
High -- | Low -- °F
Precip. -- in
Pressure 29.93 in
Visibility 10.0 miles
Clouds Scattered Clouds 4900 ft
Mostly Cloudy 9000 ft
Overcast 11000 ft
Dew Point 56 °F
Humidity 75%
Rainfall 0.14 in
Snow Depth Not available.
6:58 AM 7:28 PM
New Moon, 1% visible
METAR KDCA 290152Z 35008KT 10SM -RA SCT049 BKN090 OVC110 18/13 A2993 RMK AO2 RAB43 SLP134 P0000 T01780133
Pressure 29.93 in
Visibility 10.0 miles
Clouds Scattered Clouds 4900 ft
Mostly Cloudy 9000 ft
Overcast 11000 ft
Dew Point 56 °F
Humidity 75%
Rainfall 0.14 in
Snow Depth Not available.
6:58 AM 7:28 PM
New Moon, 1% visible
METAR KDCA 290152Z 35008KT 10SM -RA SCT049 BKN090 OVC110 18/13 A2993 RMK AO2 RAB43 SLP134 P0000 T01780133

Get Severe Weather Alerts

Thanks for signing up!

Be on the lookout for a verification email in your inbox.

You'll start receiving the daily forecast at 8 AM.

×

10-Day Weather Forecast

Almanac

Astronomy

Mar. 28, 2017 Rise Set
Actual Time
Civil Twilight
Nautical Twilight
Astronomical Twilight
Moon
Length of Visible Light
Length of Day
Tomorrow will be .
, % of the Moon is Illuminated

Today's Extremes

State Highs State Lows

Community

WunderPhotos

Upload Photos

1,962,540 photos uploaded!

WunderBlog® & News

Nearby

Air Quality

  Air Quality AQ Index Pollutant
Not available.

Snow Depth

Station Depth Elevation

Earthquake Activity

City Distance Mag. Time & Date
Minimum magnitude displayed is 2.5.

Earthquake Activity

City Distance Mag. Time & Date
Minimum magnitude displayed is 2.5.

Coastal Water Temperatures

Place Temperature

Stations

Nearby Weather Stations

Station Location Temp. Windchill Dew Point Humidity Wind Precip. Elev Updated Type
                   

Watches & Warnings

There are currently no watches in effect.